Time;durP1;ratioP1;P1;durP2;ratioP2;P2;SDS_P1;SDS_P2;PMS_P1;PMS_P2;Temp;Humidity;BMP_temperature;BMP_pressure;BME280_temperature;BME280_humidity;BME280_pressure;Samples;Min_cycle;Max_cycle;Signal;HPM_P1;HPM_P2
2022/04/08 00:00:41;;;;;;;1.27;0.88;;;10.60;99.90;;;;;;1917114;75;21204;-85
2022/04/08 00:03:52;;;;;;;2.02;0.60;;;10.60;99.90;;;;;;1915451;75;21044;-84
2022/04/08 00:06:43;;;;;;;1.45;0.80;;;10.60;99.90;;;;;;1915491;75;21153;-84
2022/04/08 00:12:14;;;;;;;2.37;0.70;;;10.50;99.90;;;;;;1936518;72;22216;-83
2022/04/08 00:15:24;;;;;;;2.20;1.00;;;10.50;99.90;;;;;;1895391;74;21528;-84
2022/04/08 00:18:34;;;;;;;1.42;0.88;;;10.60;99.90;;;;;;1910107;75;21109;-85
2022/04/08 00:21:25;;;;;;;1.80;0.93;;;10.60;99.90;;;;;;1902632;75;21102;-84
2022/04/08 00:24:17;;;;;;;1.85;0.80;;;10.60;99.90;;;;;;1904904;75;21130;-84
2022/04/08 00:29:48;;;;;;;1.22;0.50;;;10.70;99.90;;;;;;1953194;72;22249;-83
2022/04/08 00:32:59;;;;;;;1.12;0.60;;;10.60;99.90;;;;;;1917807;75;21051;-85
2022/04/08 00:36:09;;;;;;;1.55;0.57;;;10.70;99.90;;;;;;1936638;73;21101;-84
2022/04/08 00:39:00;;;;;;;2.20;0.60;;;10.70;99.90;;;;;;1917772;75;21593;-84
2022/04/08 00:41:52;;;;;;;1.45;0.80;;;10.70;99.90;;;;;;1939072;73;21128;-84
2022/04/08 00:44:44;;;;;;;1.05;0.50;;;10.60;99.90;;;;;;1921251;74;21057;-84
2022/04/08 00:47:37;;;;;;;0.35;0.33;;;10.70;99.90;;;;;;1917735;75;21047;-85
2022/04/08 00:50:29;;;;;;;0.80;0.50;;;10.70;99.90;;;;;;1917680;75;21139;-84
2022/04/08 00:55:59;;;;;;;0.85;0.60;;;10.60;99.90;;;;;;1950042;72;22121;-84
2022/04/08 00:59:09;;;;;;;2.17;0.55;;;10.60;99.90;;;;;;1917761;75;21050;-85
2022/04/08 01:02:20;;;;;;;1.67;0.50;;;10.60;99.90;;;;;;1917666;75;21055;-84
2022/04/08 01:07:55;;;;;;;1.25;0.40;;;10.60;99.90;;;;;;1941581;72;22227;-86
2022/04/08 01:11:05;;;;;;;1.35;0.40;;;10.60;99.90;;;;;;1919658;74;21143;-85
2022/04/08 01:14:17;;;;;;;0.37;0.37;;;10.60;99.90;;;;;;1914803;74;21034;-85
2022/04/08 01:17:08;;;;;;;0.80;0.40;;;10.60;99.90;;;;;;1914935;74;21053;-85
2022/04/08 01:22:49;;;;;;;1.77;0.50;;;10.60;99.90;;;;;;1960593;72;22075;-85
2022/04/08 01:28:43;;;;;;;0.72;0.28;;;10.40;99.90;;;;;;1947106;72;22131;-86
2022/04/08 01:31:52;;;;;;;1.22;0.20;;;10.40;99.90;;;;;;1910735;75;21043;-85
2022/04/08 01:35:03;;;;;;;1.10;0.37;;;10.50;99.90;;;;;;1908625;75;21189;-85
2022/04/08 01:37:55;;;;;;;1.75;0.60;;;10.50;99.90;;;;;;1896295;75;21129;-84
2022/04/08 01:40:46;;;;;;;0.40;0.20;;;10.40;99.90;;;;;;1901390;75;21047;-85
2022/04/08 01:43:38;;;;;;;0.85;0.20;;;10.40;99.90;;;;;;1884913;75;21181;-85
2022/04/08 01:46:29;;;;;;;0.53;0.30;;;10.40;99.90;;;;;;1911428;75;21083;-87
2022/04/08 01:49:21;;;;;;;1.52;0.40;;;10.40;99.90;;;;;;1917017;75;21541;-84
2022/04/08 01:52:13;;;;;;;1.02;0.20;;;10.50;99.90;;;;;;1902431;75;21110;-84
2022/04/08 01:55:06;;;;;;;0.65;0.30;;;10.40;99.90;;;;;;1897457;75;21099;-84
2022/04/08 01:57:57;;;;;;;2.08;0.20;;;10.40;99.90;;;;;;1895728;75;21047;-86
2022/04/08 02:00:49;;;;;;;1.22;0.42;;;10.30;99.90;;;;;;1907346;75;21235;-85
2022/04/08 02:03:40;;;;;;;0.75;0.30;;;10.30;99.90;;;;;;1884786;75;21110;-85
2022/04/08 02:06:32;;;;;;;0.42;0.20;;;10.40;99.90;;;;;;1912078;75;21078;-85
2022/04/08 02:09:23;;;;;;;0.20;0.20;;;10.50;99.90;;;;;;1906989;75;21114;-85
2022/04/08 02:12:15;;;;;;;0.50;0.30;;;10.60;99.90;;;;;;1910031;75;21044;-85
2022/04/08 02:17:46;;;;;;;0.82;0.30;;;10.60;99.90;;;;;;1955978;72;22190;-84
2022/04/08 02:20:56;;;;;;;0.47;0.20;;;10.70;99.90;;;;;;1916738;74;21105;-85
2022/04/08 02:24:07;;;;;;;1.30;0.30;;;10.70;99.90;;;;;;1895479;75;21120;-86
2022/04/08 02:26:58;;;;;;;0.10;0.10;;;10.70;99.90;;;;;;1917560;75;21098;-85
2022/04/08 02:29:50;;;;;;;1.00;0.20;;;10.60;99.90;;;;;;1896280;75;21098;-85
2022/04/08 02:32:41;;;;;;;1.42;0.30;;;10.60;99.90;;;;;;1901108;75;21119;-84
2022/04/08 02:38:12;;;;;;;0.82;0.20;;;10.60;99.90;;;;;;1955432;72;22146;-84
2022/04/08 02:41:22;;;;;;;0.93;0.23;;;10.60;99.90;;;;;;1907066;75;21080;-85
2022/04/08 02:44:32;;;;;;;1.85;0.30;;;10.60;99.90;;;;;;1906575;75;21102;-86
2022/04/08 02:47:23;;;;;;;0.98;0.30;;;10.70;99.90;;;;;;1864973;76;21350;-85
2022/04/08 02:50:15;;;;;;;1.17;0.40;;;10.70;99.90;;;;;;1886402;75;21091;-85
2022/04/08 02:53:07;;;;;;;0.93;0.35;;;10.70;99.90;;;;;;1870569;76;21186;-85
2022/04/08 02:55:58;;;;;;;1.27;0.37;;;10.70;99.90;;;;;;1906522;75;21048;-84
2022/04/08 02:58:51;;;;;;;0.75;0.30;;;10.70;99.90;;;;;;1903132;75;21523;-84
2022/04/08 03:01:42;;;;;;;0.60;0.40;;;10.70;99.90;;;;;;1897699;75;21051;-85
2022/04/08 03:07:13;;;;;;;0.55;0.30;;;10.60;99.90;;;;;;1935635;72;22203;-84
2022/04/08 03:10:23;;;;;;;0.62;0.30;;;10.60;99.90;;;;;;1890185;73;21094;-84
2022/04/08 03:13:33;;;;;;;1.70;0.42;;;10.60;99.90;;;;;;1897472;75;21154;-84
2022/04/08 03:16:25;;;;;;;1.72;0.40;;;10.50;99.90;;;;;;1899120;75;21110;-86
2022/04/08 03:19:18;;;;;;;3.02;0.30;;;10.50;99.90;;;;;;1917803;75;21121;-86
2022/04/08 03:22:09;;;;;;;1.10;0.40;;;10.50;99.90;;;;;;1906597;75;21129;-85
2022/04/08 03:25:00;;;;;;;0.75;0.30;;;10.50;99.90;;;;;;1886816;75;21091;-85
2022/04/08 03:27:52;;;;;;;0.65;0.20;;;10.50;99.90;;;;;;1884946;76;21051;-85
2022/04/08 03:30:43;;;;;;;0.62;0.20;;;10.50;99.90;;;;;;1897192;75;21048;-85
2022/04/08 03:33:37;;;;;;;0.53;0.20;;;10.60;99.90;;;;;;1891180;75;21096;-85
2022/04/08 03:36:28;;;;;;;1.02;0.40;;;10.60;99.90;;;;;;1900158;75;21074;-85
2022/04/08 03:39:20;;;;;;;1.65;0.20;;;10.60;99.90;;;;;;1917410;75;21105;-85
2022/04/08 03:42:11;;;;;;;0.30;0.23;;;10.60;99.90;;;;;;1899462;75;21091;-85
2022/04/08 03:47:49;;;;;;;0.88;0.30;;;10.60;99.90;;;;;;1950660;72;22204;-84
2022/04/08 03:53:37;;;;;;;0.60;0.30;;;10.60;99.90;;;;;;1959615;72;22154;-83
2022/04/08 03:56:48;;;;;;;2.45;0.50;;;10.60;99.90;;;;;;1947398;73;21090;-86
2022/04/08 03:59:57;;;;;;;1.27;0.60;;;10.50;99.90;;;;;;1917757;75;21083;-86
2022/04/08 04:02:49;;;;;;;1.82;0.70;;;10.50;99.90;;;;;;1925274;73;21152;-85
2022/04/08 04:05:43;;;;;;;3.62;1.07;;;10.60;99.90;;;;;;1930404;73;21117;-85
2022/04/08 04:08:34;;;;;;;2.15;0.90;;;10.60;99.90;;;;;;1917806;75;21135;-85
2022/04/08 04:11:25;;;;;;;3.80;1.07;;;10.50;99.90;;;;;;1927974;73;21148;-84
2022/04/08 04:14:17;;;;;;;1.92;0.93;;;10.50;99.90;;;;;;1928243;73;21129;-84
2022/04/08 04:17:09;;;;;;;2.67;0.90;;;10.40;99.90;;;;;;1940239;73;21078;-84
2022/04/08 04:20:00;;;;;;;2.30;1.00;;;10.50;99.90;;;;;;1917615;75;21118;-84
2022/04/08 04:22:53;;;;;;;2.35;1.10;;;10.50;99.90;;;;;;1917660;75;21188;-84
2022/04/08 04:25:45;;;;;;;1.55;0.40;;;10.40;99.90;;;;;;1917668;75;21152;-84
2022/04/08 04:28:37;;;;;;;0.70;0.50;;;10.50;99.90;;;;;;1923746;73;21135;-84
2022/04/08 04:31:28;;;;;;;1.00;0.55;;;10.50;99.90;;;;;;1946624;73;21518;-84
2022/04/08 04:34:20;;;;;;;1.40;0.90;;;10.60;99.90;;;;;;1917739;75;21104;-83
2022/04/08 04:37:11;;;;;;;2.20;0.80;;;10.60;99.90;;;;;;1939805;73;21183;-85
2022/04/08 04:42:44;;;;;;;1.77;0.80;;;10.60;99.90;;;;;;1957520;72;22108;-83
2022/04/08 04:45:54;;;;;;;1.82;0.70;;;10.60;99.90;;;;;;1887827;75;21097;-85
2022/04/08 04:49:04;;;;;;;1.62;0.70;;;10.80;99.90;;;;;;1905575;75;21060;-85
2022/04/08 04:54:38;;;;;;;2.00;0.80;;;10.70;99.90;;;;;;1946377;72;22149;-86
2022/04/08 04:57:48;;;;;;;1.20;0.50;;;10.70;99.90;;;;;;1929434;73;21120;-84
2022/04/08 05:03:37;;;;;;;0.30;0.25;;;10.80;99.90;;;;;;1943316;72;22650;-86
2022/04/08 05:06:47;;;;;;;1.32;0.80;;;10.80;99.90;;;;;;1891594;75;21088;-84
2022/04/08 05:09:56;;;;;;;2.47;0.68;;;10.90;99.90;;;;;;1891393;73;21143;-85
2022/04/08 05:12:47;;;;;;;0.60;0.50;;;10.80;99.90;;;;;;1885032;75;21172;-84
2022/04/08 05:15:42;;;;;;;1.80;0.40;;;10.70;99.90;;;;;;1898390;75;21092;-84
2022/04/08 05:18:32;;;;;;;0.60;0.20;;;10.80;99.90;;;;;;1875685;75;21125;-84
2022/04/08 05:21:23;;;;;;;0.93;0.40;;;10.80;99.90;;;;;;1890503;75;21048;-84
2022/04/08 05:24:15;;;;;;;1.15;0.50;;;10.90;99.90;;;;;;1885356;75;21113;-84
2022/04/08 05:27:10;;;;;;;1.00;0.50;;;10.90;99.90;;;;;;1894484;75;21107;-85
2022/04/08 05:30:07;;;;;;;1.00;0.68;;;10.90;99.90;;;;;;1893761;75;21107;-95
2022/04/08 05:32:58;;;;;;;2.15;0.55;;;11.00;99.90;;;;;;1884480;75;21091;-80
2022/04/08 05:35:50;;;;;;;1.00;0.50;;;11.10;99.90;;;;;;1872804;76;21099;-81
2022/04/08 05:38:42;;;;;;;1.42;0.40;;;11.10;99.90;;;;;;1879417;73;21038;-81
2022/04/08 05:41:33;;;;;;;1.57;0.40;;;11.10;99.90;;;;;;1859097;77;21128;-81
2022/04/08 05:44:24;;;;;;;1.82;0.60;;;11.00;99.90;;;;;;1895381;75;21150;-80
2022/04/08 05:47:16;;;;;;;2.02;0.70;;;11.00;99.90;;;;;;1889897;75;21119;-79
2022/04/08 05:50:09;;;;;;;1.70;0.90;;;11.10;99.90;;;;;;1884858;75;21222;-80
2022/04/08 05:53:01;;;;;;;0.88;0.60;;;11.10;99.90;;;;;;1898242;75;21100;-82
2022/04/08 05:55:55;;;;;;;1.35;0.50;;;11.10;99.90;;;;;;1895474;75;21100;-80
2022/04/08 05:58:47;;;;;;;0.72;0.70;;;11.10;99.90;;;;;;1876023;75;21061;-80
2022/04/08 06:04:16;;;;;;;2.47;1.00;;;11.00;99.90;;;;;;1947675;72;22169;-81
2022/04/08 06:07:26;;;;;;;1.20;0.60;;;11.10;99.90;;;;;;1916281;75;21083;-80
2022/04/08 06:10:36;;;;;;;0.88;0.42;;;11.00;99.90;;;;;;1918333;73;21489;-80
2022/04/08 06:13:32;;;;;;;1.07;0.50;;;11.00;99.90;;;;;;1896713;75;21067;-80
2022/04/08 06:19:04;;;;;;;1.37;0.70;;;11.00;99.90;;;;;;1943685;72;22158;-81
2022/04/08 06:22:14;;;;;;;1.77;0.68;;;11.10;99.90;;;;;;1940303;73;21102;-80
2022/04/08 06:25:25;;;;;;;3.40;0.72;;;11.00;99.90;;;;;;1917557;75;21051;-81
2022/04/08 06:28:16;;;;;;;4.75;1.12;;;11.00;99.90;;;;;;1934402;73;21526;-81
2022/04/08 06:33:47;;;;;;;2.60;1.40;;;11.10;99.90;;;;;;1952958;72;22195;-81
2022/04/08 06:39:35;;;;;;;3.87;1.15;;;11.10;99.90;;;;;;1939800;72;22220;-81
2022/04/08 06:45:24;;;;;;;2.72;1.25;;;11.10;99.90;;;;;;1946070;72;22149;-79
2022/04/08 06:48:33;;;;;;;1.60;1.02;;;11.10;99.90;;;;;;1896650;75;21093;-79
2022/04/08 06:51:43;;;;;;;1.80;1.05;;;11.10;99.90;;;;;;1908465;75;21164;-81
2022/04/08 06:54:35;;;;;;;2.80;1.22;;;11.10;99.90;;;;;;1903708;73;21094;-80
2022/04/08 06:57:26;;;;;;;5.35;1.50;;;11.20;99.90;;;;;;1907479;75;21125;-80
2022/04/08 07:00:19;;;;;;;3.20;1.85;;;11.20;99.90;;;;;;1917361;75;21126;-80
2022/04/08 07:03:10;;;;;;;11.80;7.22;;;11.20;99.90;;;;;;1897019;75;21126;-79
2022/04/08 07:08:41;;;;;;;1.80;1.00;;;11.30;99.90;;;;;;1952902;72;22180;-82
2022/04/08 07:14:30;;;;;;;1.55;0.82;;;11.40;99.90;;;;;;1955459;72;22174;-79
2022/04/08 07:17:40;;;;;;;3.45;0.90;;;11.40;99.90;;;;;;1917489;75;21172;-89
2022/04/08 07:20:51;;;;;;;3.15;0.90;;;11.40;99.90;;;;;;1907192;75;21142;-87
2022/04/08 07:23:50;;;;;;;6.25;1.37;;;11.50;99.90;;;;;;1901303;75;21144;-87
2022/04/08 07:26:40;;;;;;;;;;;11.50;99.90;;;;;;1909064;75;21564;-86
2022/04/08 07:29:31;;;;;;;3.35;0.60;;;11.50;99.90;;;;;;1902206;75;20171;-86
2022/04/08 07:32:22;;;;;;;3.50;0.93;;;11.40;99.90;;;;;;1884390;76;21559;-87
2022/04/08 07:35:14;;;;;;;4.45;1.00;;;11.40;99.90;;;;;;1900690;75;21142;-86
2022/04/08 07:38:06;;;;;;;2.95;1.00;;;11.50;99.90;;;;;;1906306;75;21461;-87
2022/04/08 07:43:39;;;;;;;4.60;1.50;;;11.60;99.90;;;;;;1955562;72;22216;-89
2022/04/08 07:46:48;;;;;;;6.12;1.50;;;11.70;99.90;;;;;;1895341;73;21111;-87
2022/04/08 07:52:38;;;;;;;1.87;1.40;;;11.70;99.90;;;;;;1951365;72;22251;-88
2022/04/08 07:55:48;;;;;;;27.87;15.45;;;11.70;99.90;;;;;;1903718;75;21059;-86
2022/04/08 07:58:57;;;;;;;4.08;2.40;;;11.70;99.90;;;;;;1905697;75;21035;-87
2022/04/08 08:01:48;;;;;;;5.05;2.12;;;11.70;99.90;;;;;;1912337;73;21199;-87
2022/04/08 08:04:41;;;;;;;5.53;2.67;;;11.70;99.90;;;;;;1894051;75;21059;-87
2022/04/08 08:07:32;;;;;;;5.28;3.27;;;11.70;99.90;;;;;;1906742;75;21062;-87
2022/04/08 08:10:26;;;;;;;8.33;4.33;;;11.70;99.90;;;;;;1906521;75;21126;-88
2022/04/08 08:13:17;;;;;;;9.43;3.12;;;11.70;99.90;;;;;;1917442;75;21158;-88
2022/04/08 08:16:09;;;;;;;5.37;2.90;;;11.70;99.90;;;;;;1895656;75;21052;-88
2022/04/08 08:19:01;;;;;;;10.82;6.47;;;11.70;99.90;;;;;;1914396;74;21026;-89
2022/04/08 08:24:36;;;;;;;4.97;2.80;;;11.80;99.90;;;;;;1957179;72;22626;-89
2022/04/08 08:30:24;;;;;;;4.30;2.15;;;11.90;99.90;;;;;;1950217;72;22225;-89
2022/04/08 08:33:34;;;;;;;9.95;2.37;;;12.00;99.90;;;;;;1888956;74;21062;-88
2022/04/08 08:36:43;;;;;;;7.50;3.60;;;12.10;99.90;;;;;;1912617;75;21043;-88
2022/04/08 08:39:35;;;;;;;7.90;3.50;;;12.10;99.90;;;;;;1895495;75;21200;-88
2022/04/08 08:42:27;;;;;;;7.33;3.50;;;12.10;99.90;;;;;;1908480;75;21106;-88
2022/04/08 08:45:18;;;;;;;6.40;3.47;;;12.10;99.90;;;;;;1897233;75;21103;-86
2022/04/08 08:48:10;;;;;;;3.75;2.40;;;12.20;99.90;;;;;;1914380;75;21574;-87
2022/04/08 08:51:06;;;;;;;2.95;1.80;;;12.30;99.90;;;;;;1910330;75;21052;-88
2022/04/08 08:53:58;;;;;;;1.82;1.00;;;12.40;99.90;;;;;;1897071;75;21558;-87
2022/04/08 08:56:49;;;;;;;3.62;1.50;;;12.50;99.90;;;;;;1884701;76;21576;-87
2022/04/08 08:59:40;;;;;;;2.70;1.17;;;12.60;99.90;;;;;;1913634;73;21057;-88
2022/04/08 09:02:32;;;;;;;2.27;1.40;;;12.60;99.90;;;;;;1904242;73;21162;-88
2022/04/08 09:05:26;;;;;;;3.25;1.80;;;12.80;99.90;;;;;;1904119;75;21095;-87
2022/04/08 09:08:17;;;;;;;4.60;2.30;;;13.00;99.90;;;;;;1900888;75;21187;-87
2022/04/08 09:11:09;;;;;;;3.37;2.40;;;13.10;99.90;;;;;;1912555;73;21164;-87
2022/04/08 09:14:04;;;;;;;4.33;2.67;;;13.10;99.90;;;;;;1912189;75;21098;-87
2022/04/08 09:17:03;;;;;;;5.97;3.25;;;13.30;99.90;;;;;;1915124;75;21136;-88
2022/04/08 09:19:54;;;;;;;;;;;13.20;99.90;;;;;;1931338;73;21588;-87
2022/04/08 09:22:47;;;;;;;5.65;3.58;;;13.20;99.90;;;;;;1898713;75;20167;-87
2022/04/08 09:25:39;;;;;;;6.53;3.30;;;13.20;99.90;;;;;;1895544;75;21138;-87
2022/04/08 09:28:36;;;;;;;7.10;3.70;;;13.30;99.90;;;;;;1912899;75;21156;-87
2022/04/08 09:31:27;;;;;;;8.53;4.72;;;13.40;99.90;;;;;;1884334;76;21076;-88
2022/04/08 09:34:21;;;;;;;8.05;5.20;;;13.20;99.90;;;;;;1914405;75;21145;-85
2022/04/08 09:37:15;;;;;;;8.53;5.53;;;13.20;99.90;;;;;;1896392;75;21051;-88
2022/04/08 09:40:09;;;;;;;7.80;4.08;;;13.30;99.90;;;;;;1894979;75;21102;-88
2022/04/08 09:43:00;;;;;;;5.72;3.95;;;13.20;99.90;;;;;;1913721;75;21539;-88
2022/04/08 09:45:52;;;;;;;6.65;4.00;;;13.20;99.90;;;;;;1903608;75;21050;-89
2022/04/08 09:48:44;;;;;;;6.85;4.03;;;13.30;99.90;;;;;;1897941;75;21099;-88
2022/04/08 09:51:38;;;;;;;8.48;4.58;;;13.30;99.90;;;;;;1894763;75;21047;-87
2022/04/08 09:54:32;;;;;;;5.97;4.53;;;13.50;99.90;;;;;;1894026;75;21201;-89
2022/04/08 09:57:44;;;;;;;7.28;3.85;;;13.60;99.90;;;;;;1890146;75;21144;-87
2022/04/08 10:00:38;;;;;;;6.67;4.00;;;13.50;99.90;;;;;;1883514;76;21103;-87
2022/04/08 10:03:31;;;;;;;6.75;4.83;;;13.60;99.90;;;;;;1900633;75;21128;-88
2022/04/08 10:06:23;;;;;;;6.35;4.08;;;13.70;99.90;;;;;;1895718;75;21140;-88
2022/04/08 10:09:17;;;;;;;7.87;4.45;;;13.50;99.90;;;;;;1894589;75;21055;-88
2022/04/08 10:12:13;;;;;;;5.80;3.60;;;13.50;99.90;;;;;;1894630;75;21061;-88
2022/04/08 10:15:10;;;;;;;7.45;4.17;;;13.60;99.90;;;;;;1896557;75;21059;-89
2022/04/08 10:18:04;;;;;;;6.50;4.22;;;13.60;99.90;;;;;;1899875;75;21084;-89
2022/04/08 10:20:58;;;;;;;6.67;4.33;;;13.70;99.90;;;;;;1894997;75;21144;-88
2022/04/08 10:23:51;;;;;;;6.45;3.75;;;13.80;99.90;;;;;;1908619;75;21059;-89
2022/04/08 10:27:01;;;;;;;6.22;3.47;;;13.90;99.90;;;;;;1893396;75;21064;-89
2022/04/08 10:29:57;;;;;;;3.92;2.30;;;13.70;99.90;;;;;;1905910;74;21087;-89
2022/04/08 10:32:50;;;;;;;5.80;3.33;;;13.70;99.90;;;;;;1893637;76;21058;-90
2022/04/08 10:35:43;;;;;;;6.20;4.70;;;13.80;99.90;;;;;;1905965;74;21091;-89
2022/04/08 10:38:38;;;;;;;7.00;4.45;;;13.80;99.90;;;;;;1926065;74;21113;-91
2022/04/08 10:41:29;;;;;;;6.28;4.12;;;13.90;99.90;;;;;;1900892;74;21060;-83
2022/04/08 10:44:32;;;;;;;6.30;4.92;;;13.90;99.90;;;;;;1913042;74;21216;-82
2022/04/08 10:47:24;;;;;;;5.60;3.77;;;13.90;99.90;;;;;;1911234;74;21128;-82
2022/04/08 10:50:26;;;;;;;5.80;4.03;;;13.90;99.90;;;;;;1913476;74;21710;-81
2022/04/08 10:53:21;;;;;;;4.37;2.52;;;13.90;99.90;;;;;;1925035;74;21125;-83
2022/04/08 10:56:14;;;;;;;4.58;2.92;;;13.90;99.90;;;;;;1904213;74;21169;-81
2022/04/08 10:59:07;;;;;;;4.05;1.77;;;13.90;99.90;;;;;;1904147;74;21110;-81
2022/04/08 11:02:05;;;;;;;3.02;1.77;;;13.90;99.90;;;;;;1907817;74;21109;-81
2022/04/08 11:05:04;;;;;;;4.20;2.90;;;14.00;99.90;;;;;;1907976;74;21657;-80
2022/04/08 11:07:55;;;;;;;6.10;2.95;;;13.80;99.90;;;;;;1915542;74;21123;-80
2022/04/08 11:10:46;;;;;;;5.58;2.85;;;13.70;99.90;;;;;;1915223;74;21070;-81
2022/04/08 11:13:41;;;;;;;3.98;2.50;;;13.70;99.90;;;;;;1915198;74;21047;-80
2022/04/08 11:16:34;;;;;;;3.30;1.95;;;13.70;99.90;;;;;;1911677;74;21047;-81
2022/04/08 11:19:25;;;;;;;4.70;2.90;;;13.70;99.90;;;;;;1906674;74;21113;-81
2022/04/08 11:22:18;;;;;;;5.17;2.80;;;13.70;99.90;;;;;;1904029;74;21113;-81
2022/04/08 11:25:12;;;;;;;4.37;3.12;;;13.60;99.90;;;;;;1904533;74;21058;-82
2022/04/08 11:28:08;;;;;;;6.42;4.40;;;13.60;99.90;;;;;;1905179;74;21072;-81
2022/04/08 11:31:00;;;;;;;5.58;3.90;;;13.60;99.90;;;;;;1908949;74;21110;-81
2022/04/08 11:33:51;;;;;;;8.50;4.87;;;13.70;99.90;;;;;;1893635;74;21152;-81
2022/04/08 11:36:44;;;;;;;9.40;5.80;;;13.60;99.90;;;;;;1893444;74;21113;-81
2022/04/08 11:39:35;;;;;;;8.50;5.85;;;13.60;99.90;;;;;;1915329;74;21152;-81
2022/04/08 11:42:27;;;;;;;9.53;6.65;;;13.60;99.90;;;;;;1910588;74;21600;-81
2022/04/08 11:45:19;;;;;;;8.53;6.55;;;13.60;99.90;;;;;;1905459;74;21643;-81
2022/04/08 11:48:15;;;;;;;10.28;6.53;;;13.60;99.90;;;;;;1896916;74;21113;-81
2022/04/08 11:51:08;;;;;;;11.45;7.30;;;13.50;99.90;;;;;;1915607;74;21176;-81
2022/04/08 11:54:04;;;;;;;9.63;7.08;;;13.50;99.90;;;;;;1893196;74;21052;-81
2022/04/08 11:56:55;;;;;;;8.40;6.33;;;13.50;99.90;;;;;;1908964;74;21657;-81
2022/04/08 11:59:50;;;;;;;9.88;6.05;;;13.50;99.90;;;;;;1893389;74;21117;-81
2022/04/08 12:02:41;;;;;;;9.13;5.92;;;13.40;99.90;;;;;;1915409;74;21058;-81
2022/04/08 12:05:33;;;;;;;5.78;5.05;;;13.50;99.90;;;;;;1915726;74;21121;-81
2022/04/08 12:08:26;;;;;;;7.72;5.42;;;13.40;99.90;;;;;;1911491;74;21067;-81
2022/04/08 12:11:20;;;;;;;9.50;5.95;;;13.50;99.90;;;;;;1906681;74;21093;-83
2022/04/08 12:14:14;;;;;;;7.35;5.25;;;13.50;99.90;;;;;;1917197;74;21110;-83
2022/04/08 12:17:06;;;;;;;7.30;5.83;;;13.50;99.90;;;;;;1915764;74;21510;-81
2022/04/08 12:22:35;;;;;;;7.45;5.28;;;13.70;99.90;;;;;;1941420;72;22200;-83
2022/04/08 12:25:45;;;;;;;6.60;5.45;;;13.70;99.90;;;;;;1884719;76;21141;-84
2022/04/08 12:29:07;;;;;;;9.20;5.97;;;13.70;99.90;;;;;;1881982;75;21109;-83
2022/04/08 12:32:01;;;;;;;10.48;5.53;;;13.70;99.90;;;;;;1897943;74;21560;-85
2022/04/08 12:34:57;;;;;;;7.58;5.12;;;13.70;99.90;;;;;;1894986;75;21107;-85
2022/04/08 12:37:51;;;;;;;8.28;5.87;;;13.80;99.90;;;;;;1889383;75;21059;-83
2022/04/08 12:40:42;;;;;;;8.90;6.15;;;13.80;99.90;;;;;;1884541;76;21169;-84
2022/04/08 12:43:35;;;;;;;8.80;5.60;;;13.90;99.90;;;;;;1887817;74;21111;-83
2022/04/08 12:46:31;;;;;;;9.23;5.85;;;13.90;99.90;;;;;;1894825;75;21113;-83
2022/04/08 12:49:22;;;;;;;9.60;5.78;;;14.00;99.90;;;;;;1885074;75;21122;-83
2022/04/08 12:52:14;;;;;;;7.00;5.70;;;14.00;99.90;;;;;;1899702;74;21091;-84
2022/04/08 12:55:09;;;;;;;7.05;5.20;;;13.90;99.90;;;;;;1897580;75;21097;-83
2022/04/08 12:58:01;;;;;;;7.75;6.00;;;13.90;99.90;;;;;;1885027;75;21180;-83
2022/04/08 13:00:59;;;;;;;8.53;5.45;;;13.90;99.90;;;;;;1900761;74;21192;-85
2022/04/08 13:03:51;;;;;;;7.35;5.50;;;13.90;99.90;;;;;;1905445;75;21181;-84
2022/04/08 13:06:44;;;;;;;6.85;5.92;;;13.80;99.90;;;;;;1894817;75;21632;-85
2022/04/08 13:09:36;;;;;;;6.87;6.17;;;13.90;99.90;;;;;;1866932;75;21144;-84
2022/04/08 13:16:29;;;;;;;7.20;5.15;;;13.80;99.90;;;;;;1894941;75;21078;-85
2022/04/08 13:19:29;;;;;;;8.85;6.17;;;13.90;99.90;;;;;;1896368;75;21117;-83
2022/04/08 13:22:29;;;;;;;10.60;7.12;;;14.00;99.90;;;;;;1864797;75;21083;-84
2022/04/08 13:25:24;;;;;;;8.33;6.97;;;14.00;99.90;;;;;;1895477;75;21331;-82
2022/04/08 13:28:16;;;;;;;7.92;6.53;;;14.00;99.90;;;;;;1894867;75;21851;-83
2022/04/08 13:31:11;;;;;;;10.40;7.45;;;13.90;99.90;;;;;;1814881;77;21129;-83
2022/04/08 13:34:05;;;;;;;8.10;7.08;;;13.90;99.90;;;;;;1810105;77;21505;-83
2022/04/08 13:36:57;;;;;;;10.98;7.72;;;13.90;99.90;;;;;;1888163;75;21200;-82
2022/04/08 13:39:49;;;;;;;9.20;7.45;;;14.00;99.90;;;;;;1883234;76;21110;-81
2022/04/08 13:42:42;;;;;;;9.18;6.62;;;14.00;99.90;;;;;;1887604;75;21167;-82
2022/04/08 13:45:35;;;;;;;8.08;6.80;;;14.00;99.90;;;;;;1888264;76;21205;-82
2022/04/08 13:48:26;;;;;;;9.00;7.05;;;13.90;99.90;;;;;;1872966;75;21138;-82
2022/04/08 13:51:18;;;;;;;8.90;7.17;;;13.90;99.90;;;;;;1810610;77;21169;-82
2022/04/08 13:54:10;;;;;;;8.63;7.72;;;14.00;99.90;;;;;;1817759;78;21139;-82
2022/04/08 13:57:02;;;;;;;11.15;9.70;;;14.10;99.90;;;;;;1872287;76;21098;-82
2022/04/08 13:59:54;;;;;;;7.97;6.65;;;14.10;99.90;;;;;;1881580;75;21135;-82
2022/04/08 14:02:45;;;;;;;8.43;7.20;;;14.10;99.90;;;;;;1880337;75;21056;-82
2022/04/08 14:05:37;;;;;;;10.28;6.65;;;14.20;99.90;;;;;;1915223;75;21113;-83
2022/04/08 14:08:28;;;;;;;9.78;7.55;;;14.30;99.90;;;;;;1822391;78;21137;-84
2022/04/08 14:11:20;;;;;;;9.35;7.22;;;14.40;99.90;;;;;;1881053;75;21200;-83
2022/04/08 14:14:12;;;;;;;8.25;7.30;;;14.40;99.90;;;;;;1898662;75;21596;-83
2022/04/08 14:17:04;;;;;;;8.15;6.85;;;14.60;99.90;;;;;;1897250;75;21083;-82
2022/04/08 14:19:56;;;;;;;8.85;7.37;;;14.60;99.90;;;;;;1904313;75;21583;-82
2022/04/08 14:22:47;;;;;;;9.65;7.40;;;14.70;99.90;;;;;;1881444;74;21104;-83
2022/04/08 14:25:38;;;;;;;8.63;7.65;;;14.90;99.90;;;;;;1817182;78;21634;-82
2022/04/08 14:28:31;;;;;;;8.80;7.90;;;15.10;99.90;;;;;;1858416;77;21096;-82
2022/04/08 14:31:24;;;;;;;10.20;7.53;;;15.20;99.90;;;;;;1800527;79;21126;-82
2022/04/08 14:34:22;;;;;;;9.58;7.40;;;15.50;99.90;;;;;;1848200;75;21837;-83
2022/04/08 14:37:14;;;;;;;8.98;8.00;;;16.20;99.90;;;;;;1825071;77;21063;-83
2022/04/08 14:40:08;;;;;;;11.65;8.50;;;15.80;99.90;;;;;;1871252;77;21228;-83
2022/04/08 14:43:01;;;;;;;10.93;8.28;;;15.70;99.90;;;;;;1852141;77;21632;-83
2022/04/08 14:45:52;;;;;;;10.40;8.65;;;15.50;99.90;;;;;;1852357;77;21557;-82
2022/04/08 14:48:44;;;;;;;9.98;8.60;;;15.40;99.90;;;;;;1854341;77;21502;-83
2022/04/08 14:51:37;;;;;;;11.00;8.40;;;15.30;99.90;;;;;;1852606;77;21566;-84
2022/04/08 14:54:29;;;;;;;10.23;8.13;;;15.20;99.90;;;;;;1867076;77;21168;-82
2022/04/08 14:57:20;;;;;;;9.33;8.43;;;15.10;99.90;;;;;;1859930;76;21134;-84
2022/04/08 15:00:15;;;;;;;10.45;7.90;;;15.00;99.90;;;;;;1868675;77;21140;-82
2022/04/08 15:03:07;;;;;;;9.33;7.95;;;14.90;99.90;;;;;;1849199;77;21132;-82
2022/04/08 15:06:01;;;;;;;8.35;7.42;;;14.80;99.90;;;;;;1849937;77;21095;-82
2022/04/08 15:08:52;;;;;;;12.30;9.40;;;14.80;99.90;;;;;;1850675;77;21102;-82
2022/04/08 15:11:43;;;;;;;14.05;11.20;;;14.80;99.90;;;;;;1853627;77;21176;-82
2022/04/08 15:14:35;;;;;;;10.75;9.35;;;14.60;99.90;;;;;;1850783;77;21074;-81
2022/04/08 15:17:27;;;;;;;9.58;7.90;;;14.60;99.90;;;;;;1851983;77;21066;-82
2022/04/08 15:20:18;;;;;;;8.90;7.87;;;14.60;99.90;;;;;;1850453;77;21128;-81
2022/04/08 15:23:14;;;;;;;9.43;8.15;;;14.70;99.90;;;;;;1854680;76;21118;-82
2022/04/08 15:26:06;;;;;;;9.18;7.72;;;14.70;99.90;;;;;;1881125;76;21128;-82
2022/04/08 15:28:58;;;;;;;9.98;7.72;;;14.60;99.90;;;;;;1880131;75;21071;-82
2022/04/08 15:31:50;;;;;;;9.00;6.90;;;14.50;99.90;;;;;;1895883;74;21575;-84
2022/04/08 15:34:42;;;;;;;9.48;7.33;;;14.40;99.90;;;;;;1878333;75;21447;-83
2022/04/08 15:37:33;;;;;;;8.28;7.40;;;14.20;99.90;;;;;;1882833;75;21188;-82
2022/04/08 15:40:26;;;;;;;8.85;7.60;;;14.20;99.90;;;;;;1878811;76;21058;-84
2022/04/08 15:43:17;;;;;;;10.13;7.58;;;14.20;99.90;;;;;;1869526;75;21160;-83
2022/04/08 15:46:09;;;;;;;10.05;8.58;;;14.20;99.90;;;;;;1897586;74;21117;-83
2022/04/08 15:49:01;;;;;;;10.63;8.20;;;14.20;99.90;;;;;;1856867;77;21238;-82
2022/04/08 15:51:52;;;;;;;10.78;8.95;;;14.10;99.90;;;;;;1878805;76;21573;-83
2022/04/08 15:54:43;;;;;;;9.68;7.83;;;14.00;99.90;;;;;;1887484;75;21223;-83
2022/04/08 15:57:34;;;;;;;9.58;8.43;;;14.10;99.90;;;;;;1886091;75;21063;-85
2022/04/08 16:00:26;;;;;;;13.38;9.28;;;14.10;99.90;;;;;;1820415;79;21149;-84
2022/04/08 16:03:28;;;;;;;10.25;9.23;;;14.10;99.90;;;;;;1880416;76;21046;-83
2022/04/08 16:11:31;;;;;;;9.83;8.65;;;13.90;99.90;;;;;;1940346;74;22164;-82
2022/04/08 16:14:40;;;;;;;9.23;8.23;;;13.60;99.90;;;;;;1873131;76;21165;-83
2022/04/08 16:17:50;;;;;;;10.23;9.15;;;13.50;99.90;;;;;;1916802;73;21046;-83
2022/04/08 16:20:42;;;;;;;9.78;8.28;;;13.50;99.90;;;;;;1894476;73;21113;-83
2022/04/08 16:23:33;;;;;;;10.95;8.90;;;13.50;99.90;;;;;;1905665;75;21098;-82
2022/04/08 16:26:24;;;;;;;12.20;9.30;;;13.50;99.90;;;;;;1940858;73;21063;-83
2022/04/08 16:29:18;;;;;;;11.35;10.15;;;13.50;99.90;;;;;;1916099;73;21149;-82